createdAt,value
2023-01-08T00:00:11.670Z,1.17
2023-01-08T00:02:38.219Z,0.87
2023-01-08T00:05:05.040Z,1.23
2023-01-08T00:07:31.516Z,1.23
2023-01-08T00:10:00.367Z,1.03
2023-01-08T00:12:29.268Z,1.43
2023-01-08T00:14:55.722Z,1.77
2023-01-08T00:17:22.318Z,1.30
2023-01-08T00:19:48.772Z,1.73
2023-01-08T00:22:15.237Z,1.40
2023-01-08T00:24:44.069Z,1.00
2023-01-08T00:27:13.110Z,1.50
2023-01-08T00:29:39.588Z,1.00
2023-01-08T00:32:06.100Z,1.13
2023-01-08T00:34:32.579Z,1.37
2023-01-08T00:36:59.109Z,1.23
2023-01-08T00:39:33.090Z,1.00
2023-01-08T00:41:59.567Z,1.17
2023-01-08T00:44:26.086Z,1.10
2023-01-08T00:46:52.573Z,1.57
2023-01-08T00:49:19.024Z,1.93
2023-01-08T00:51:45.474Z,1.57
2023-01-08T00:54:12.090Z,1.50
2023-01-08T00:56:38.543Z,1.40
2023-01-08T00:59:04.959Z,1.43
2023-01-08T01:01:31.501Z,1.07
2023-01-08T01:03:58.049Z,1.30
2023-01-08T01:06:24.534Z,1.20
2023-01-08T01:08:51.066Z,1.17
2023-01-08T01:11:23.670Z,1.47
2023-01-08T01:13:51.215Z,1.30
2023-01-08T01:16:18.230Z,1.27
2023-01-08T01:18:45.111Z,1.80
2023-01-08T01:21:21.241Z,1.40
2023-01-08T01:23:50.072Z,1.00
2023-01-08T01:26:19.305Z,1.20
2023-01-08T01:28:50.809Z,1.37
2023-01-08T01:31:20.377Z,0.90
2023-01-08T01:33:49.524Z,1.20
2023-01-08T01:36:17.524Z,1.23
2023-01-08T01:38:48.427Z,1.27
2023-01-08T01:41:26.549Z,1.60
2023-01-08T01:43:54.870Z,1.20
2023-01-08T01:46:33.570Z,1.67
2023-01-08T01:49:16.998Z,1.10
2023-01-08T01:51:47.947Z,1.40
2023-01-08T01:54:26.583Z,1.13
2023-01-08T01:56:53.189Z,1.10
2023-01-08T01:59:19.888Z,1.47
2023-01-08T02:01:46.975Z,0.90
2023-01-08T02:04:14.113Z,1.30
2023-01-08T02:07:06.625Z,1.43
2023-01-08T02:09:46.081Z,1.20
2023-01-08T02:12:39.238Z,2.00
2023-01-08T02:15:29.088Z,1.07
2023-01-08T02:18:08.513Z,0.97
2023-01-08T02:20:40.833Z,2.00
2023-01-08T02:23:20.836Z,1.77
2023-01-08T02:26:14.954Z,2.00
2023-01-08T02:28:47.332Z,1.40
2023-01-08T02:31:16.299Z,1.47
2023-01-08T02:33:42.842Z,1.60
2023-01-08T02:36:27.444Z,1.43
2023-01-08T02:39:18.702Z,1.83
2023-01-08T02:41:51.247Z,1.60
2023-01-08T02:44:23.162Z,1.33
2023-01-08T02:46:52.853Z,1.30
2023-01-08T02:49:23.293Z,1.73
2023-01-08T02:51:54.576Z,1.63
2023-01-08T02:54:31.350Z,2.10
2023-01-08T02:57:11.043Z,1.17
2023-01-08T02:59:42.384Z,1.90
2023-01-08T03:02:12.063Z,1.53
2023-01-08T03:04:49.075Z,1.93
2023-01-08T03:10:07.984Z,1.50
2023-01-08T03:12:53.595Z,1.80
2023-01-08T03:15:32.291Z,1.53
2023-01-08T03:18:06.760Z,1.60
2023-01-08T03:20:37.371Z,1.20
2023-01-08T03:23:09.185Z,1.53
2023-01-08T03:25:39.958Z,1.67
2023-01-08T03:28:16.049Z,1.40
2023-01-08T03:30:44.209Z,1.17
2023-01-08T03:33:12.718Z,1.80
2023-01-08T03:35:42.945Z,1.57
2023-01-08T03:38:40.518Z,1.23
2023-01-08T03:41:15.126Z,1.20
2023-01-08T03:43:41.642Z,1.67
2023-01-08T03:46:14.091Z,2.00
2023-01-08T03:48:41.206Z,1.60
2023-01-08T03:51:11.086Z,2.13
2023-01-08T03:53:37.652Z,1.67
2023-01-08T03:56:04.468Z,1.47
2023-01-08T03:58:30.903Z,1.40
2023-01-08T04:00:57.431Z,1.93
2023-01-08T04:03:24.712Z,1.77
2023-01-08T04:05:55.878Z,1.50
2023-01-08T04:08:22.320Z,1.80
2023-01-08T04:10:48.778Z,1.40
2023-01-08T04:13:15.231Z,1.83
2023-01-08T04:15:49.568Z,2.10
2023-01-08T04:18:16.892Z,1.77
2023-01-08T04:20:47.986Z,1.47
2023-01-08T04:23:15.201Z,1.53
2023-01-08T04:25:41.722Z,1.50
2023-01-08T04:28:20.249Z,1.70
2023-01-08T04:30:46.896Z,1.67
2023-01-08T04:33:13.519Z,1.87
2023-01-08T04:35:40.110Z,1.70
2023-01-08T04:38:06.669Z,1.70
2023-01-08T04:40:36.455Z,1.60
2023-01-08T04:43:02.929Z,1.20
2023-01-08T04:45:29.444Z,1.80
2023-01-08T04:47:59.452Z,2.00
2023-01-08T04:50:27.111Z,1.20
2023-01-08T04:52:53.877Z,1.10
2023-01-08T04:55:20.483Z,1.80
2023-01-08T04:57:49.887Z,2.00
2023-01-08T05:00:16.914Z,1.60
2023-01-08T05:02:43.494Z,1.73
2023-01-08T05:05:10.109Z,1.73
2023-01-08T05:07:41.115Z,1.53
2023-01-08T05:10:08.136Z,1.47
2023-01-08T05:12:34.572Z,1.67
2023-01-08T05:15:01.023Z,1.63
2023-01-08T05:17:27.658Z,1.50
2023-01-08T05:19:54.067Z,1.87
2023-01-08T05:22:26.482Z,1.73
2023-01-08T05:24:53.007Z,1.00
2023-01-08T05:27:19.518Z,1.10
2023-01-08T05:29:45.971Z,1.50
2023-01-08T05:32:17.584Z,1.27
2023-01-08T05:34:45.458Z,1.40
2023-01-08T05:37:12.227Z,1.83
2023-01-08T05:39:38.726Z,1.10
2023-01-08T05:42:05.400Z,1.60
2023-01-08T05:44:31.821Z,1.27
2023-01-08T05:46:58.280Z,1.70
2023-01-08T05:49:26.911Z,1.30
2023-01-08T05:51:53.358Z,1.17
2023-01-08T05:54:19.783Z,1.93
2023-01-08T05:56:46.234Z,1.07
2023-01-08T05:59:13.751Z,1.80
2023-01-08T06:01:40.677Z,1.77
2023-01-08T06:04:07.309Z,1.90
2023-01-08T06:06:34.829Z,1.53
2023-01-08T06:09:02.361Z,1.40
2023-01-08T06:11:28.876Z,1.93
2023-01-08T06:13:55.357Z,2.17
2023-01-08T06:16:22.009Z,1.77
2023-01-08T06:18:48.611Z,1.37
2023-01-08T06:21:15.086Z,1.87
2023-01-08T06:23:41.548Z,2.30
2023-01-08T06:26:15.578Z,2.13
2023-01-08T06:28:42.048Z,2.13
2023-01-08T06:31:08.582Z,2.20
2023-01-08T06:33:35.075Z,2.63
2023-01-08T06:36:05.404Z,2.07
2023-01-08T06:38:35.593Z,1.80
2023-01-08T06:41:07.000Z,1.90
2023-01-08T06:43:36.416Z,1.23
2023-01-08T06:46:07.269Z,2.00
2023-01-08T06:48:34.230Z,2.53
2023-01-08T06:51:02.148Z,2.03
2023-01-08T06:53:28.717Z,1.33
2023-01-08T06:55:57.210Z,1.53
2023-01-08T06:58:27.242Z,2.00
2023-01-08T07:00:56.041Z,1.30
2023-01-08T07:03:22.580Z,1.83
2023-01-08T07:05:50.814Z,2.00
2023-01-08T07:08:18.448Z,1.57
2023-01-08T07:10:49.784Z,2.37
2023-01-08T07:13:16.321Z,1.70
2023-01-08T07:15:43.020Z,1.93
2023-01-08T07:18:11.589Z,1.47
2023-01-08T07:20:38.350Z,1.43
2023-01-08T07:23:10.773Z,1.80
2023-01-08T07:25:42.030Z,1.40
2023-01-08T07:28:12.695Z,1.90
2023-01-08T07:30:39.353Z,1.40
2023-01-08T07:33:05.978Z,1.30
2023-01-08T07:35:41.713Z,1.70
2023-01-08T07:38:08.218Z,1.97
2023-01-08T07:40:34.767Z,1.50
2023-01-08T07:43:03.395Z,1.10
2023-01-08T07:45:43.669Z,1.67
2023-01-08T07:48:10.720Z,1.67
2023-01-08T07:50:39.412Z,1.20
2023-01-08T07:53:07.341Z,1.50
2023-01-08T07:55:43.512Z,1.30
2023-01-08T07:58:12.539Z,1.80
2023-01-08T08:00:39.310Z,1.87
2023-01-08T08:03:07.938Z,1.33
2023-01-08T08:05:45.668Z,1.20
2023-01-08T08:08:13.204Z,1.53
2023-01-08T08:10:40.879Z,1.77
2023-01-08T08:13:07.389Z,1.27
2023-01-08T08:15:38.297Z,1.30
2023-01-08T08:18:05.578Z,1.53
2023-01-08T08:20:32.386Z,1.27
2023-01-08T08:23:07.993Z,1.20
2023-01-08T08:25:41.720Z,1.20
2023-01-08T08:28:10.711Z,1.10
2023-01-08T08:30:37.647Z,1.13
2023-01-08T08:33:05.691Z,1.70
2023-01-08T08:35:37.757Z,2.03
2023-01-08T08:38:07.444Z,1.50
2023-01-08T08:40:33.888Z,1.60
2023-01-08T08:43:02.777Z,1.60
2023-01-08T08:45:30.013Z,1.60
2023-01-08T08:47:56.831Z,1.70
2023-01-08T08:50:23.921Z,1.40
2023-01-08T08:52:50.436Z,1.50
2023-01-08T08:55:21.998Z,1.63
2023-01-08T08:57:49.333Z,1.67
2023-01-08T09:00:16.707Z,0.93
2023-01-08T09:02:43.598Z,1.50
2023-01-08T09:05:10.930Z,1.30
2023-01-08T09:07:37.431Z,1.73
2023-01-08T09:10:04.796Z,1.30
2023-01-08T09:12:31.339Z,1.20
2023-01-08T09:14:57.951Z,1.30
2023-01-08T09:17:25.970Z,1.03
2023-01-08T09:19:52.760Z,1.20
2023-01-08T09:22:19.734Z,1.87
2023-01-08T09:24:46.365Z,1.30
2023-01-08T09:27:13.758Z,1.30
2023-01-08T09:29:40.256Z,1.43
2023-01-08T09:32:07.633Z,1.23
2023-01-08T09:34:36.315Z,1.57
2023-01-08T09:37:03.879Z,1.30
2023-01-08T09:39:30.422Z,1.17
2023-01-08T09:42:01.092Z,1.33
2023-01-08T09:44:31.116Z,1.10
2023-01-08T09:46:58.590Z,1.20
2023-01-08T09:49:38.574Z,1.10
2023-01-08T09:52:05.512Z,0.70
2023-01-08T09:54:32.478Z,0.73
2023-01-08T09:57:00.452Z,0.70
2023-01-08T09:59:27.164Z,0.83
2023-01-08T10:01:54.360Z,0.60
2023-01-08T10:04:27.040Z,0.60
2023-01-08T10:06:57.197Z,0.77
2023-01-08T10:09:29.596Z,0.87
2023-01-08T10:12:06.731Z,1.07
2023-01-08T10:14:39.051Z,0.67
2023-01-08T10:17:12.378Z,0.80
2023-01-08T10:19:38.878Z,0.80
2023-01-08T10:22:13.831Z,0.40
2023-01-08T10:24:40.283Z,1.10
2023-01-08T10:27:10.230Z,0.50
2023-01-08T10:29:39.784Z,0.37
2023-01-08T10:32:25.834Z,0.30
2023-01-08T10:34:55.892Z,0.40
2023-01-08T10:37:24.218Z,0.40
2023-01-08T10:39:52.825Z,0.50
2023-01-08T10:42:22.116Z,0.70
2023-01-08T10:45:02.154Z,0.30
2023-01-08T10:47:33.872Z,0.90
2023-01-08T10:50:02.704Z,0.70
2023-01-08T10:52:36.374Z,0.83
2023-01-08T10:55:25.031Z,0.70
2023-01-08T10:58:15.189Z,0.53
2023-01-08T11:00:42.107Z,0.60
2023-01-08T11:03:22.185Z,0.50
2023-01-08T11:05:53.414Z,0.47
2023-01-08T11:08:23.158Z,0.40
2023-01-08T11:11:02.940Z,0.70
2023-01-08T11:13:30.287Z,0.67
2023-01-08T11:16:10.506Z,1.03
2023-01-08T11:18:48.654Z,0.33
2023-01-08T11:21:24.769Z,0.60
2023-01-08T11:24:16.488Z,0.60
2023-01-08T11:26:48.639Z,0.40
2023-01-08T11:29:38.965Z,0.43
2023-01-08T11:32:12.337Z,0.40
2023-01-08T11:34:44.760Z,0.50
2023-01-08T11:37:22.756Z,0.50
2023-01-08T11:39:49.392Z,0.50
2023-01-08T11:42:34.304Z,0.47
2023-01-08T11:45:16.246Z,0.20
2023-01-08T11:48:14.720Z,0.33
2023-01-08T11:50:53.298Z,0.30
2023-01-08T11:53:32.206Z,0.47
2023-01-08T11:56:29.267Z,0.57
2023-01-08T11:58:55.668Z,0.53
2023-01-08T12:01:37.299Z,0.30
2023-01-08T12:04:33.169Z,0.30
2023-01-08T12:07:12.012Z,0.23
2023-01-08T12:09:49.912Z,0.17
2023-01-08T12:12:50.684Z,0.30
2023-01-08T12:15:32.550Z,0.70
2023-01-08T12:18:08.586Z,0.20
2023-01-08T12:20:42.383Z,0.30
2023-01-08T12:23:18.933Z,0.30
2023-01-08T12:25:59.080Z,0.30
2023-01-08T12:28:42.802Z,0.20
2023-01-08T12:31:30.521Z,0.47
2023-01-08T12:34:20.550Z,0.27
2023-01-08T12:36:55.449Z,0.40
2023-01-08T12:39:26.580Z,0.10
2023-01-08T12:42:05.198Z,0.30
2023-01-08T12:44:32.764Z,0.20
2023-01-08T12:47:03.455Z,0.27
2023-01-08T12:49:51.585Z,0.30
2023-01-08T12:52:44.017Z,0.20
2023-01-08T12:55:31.988Z,0.27
2023-01-08T12:58:16.908Z,0.43
2023-01-08T13:01:01.005Z,0.40
2023-01-08T13:03:30.118Z,0.30
2023-01-08T13:06:09.185Z,0.30
2023-01-08T13:08:38.020Z,0.30
2023-01-08T13:11:05.743Z,0.43
2023-01-08T13:13:35.250Z,0.30
2023-01-08T13:16:20.248Z,0.40
2023-01-08T13:19:04.500Z,0.33
2023-01-08T13:21:37.231Z,0.40
2023-01-08T13:24:26.824Z,0.40
2023-01-08T13:26:53.583Z,0.30
2023-01-08T13:29:44.044Z,0.20
2023-01-08T13:32:35.892Z,0.50
2023-01-08T13:35:15.445Z,0.23
2023-01-08T13:37:47.275Z,0.30
2023-01-08T13:40:59.068Z,0.30
2023-01-08T13:43:36.674Z,0.50
2023-01-08T13:46:03.078Z,0.40
2023-01-08T13:48:37.274Z,0.10
2023-01-08T13:51:04.509Z,0.20
2023-01-08T13:53:31.781Z,0.40
2023-01-08T13:56:01.426Z,0.40
2023-01-08T13:58:33.988Z,0.20
2023-01-08T14:01:02.165Z,0.30
2023-01-08T14:03:35.766Z,0.40
2023-01-08T14:06:07.245Z,0.40
2023-01-08T14:08:34.316Z,0.30
2023-01-08T14:11:02.913Z,0.20
2023-01-08T14:13:32.074Z,0.50
2023-01-08T14:16:02.930Z,0.40
2023-01-08T14:18:29.755Z,0.23
2023-01-08T14:20:56.461Z,0.30
2023-01-08T14:23:37.840Z,0.60
2023-01-08T14:26:08.489Z,0.90
2023-01-08T14:28:44.199Z,0.30
2023-01-08T14:31:21.257Z,0.27
2023-01-08T14:33:48.903Z,0.37
2023-01-08T14:36:16.296Z,0.50
2023-01-08T14:38:42.769Z,0.50
2023-01-08T14:41:13.541Z,0.30
2023-01-08T14:43:49.843Z,0.40
2023-01-08T14:46:27.352Z,0.27
2023-01-08T14:48:57.957Z,0.30
2023-01-08T14:51:27.935Z,0.30
2023-01-08T14:53:58.614Z,0.53
2023-01-08T14:56:31.179Z,0.30
2023-01-08T14:58:58.631Z,0.60
2023-01-08T15:01:27.685Z,0.23
2023-01-08T15:04:08.233Z,0.50
2023-01-08T15:06:34.775Z,0.23
2023-01-08T15:09:01.407Z,0.60
2023-01-08T15:11:31.467Z,0.30
2023-01-08T15:13:58.596Z,0.50
2023-01-08T15:16:33.974Z,0.40
2023-01-08T15:19:13.587Z,0.30
2023-01-08T15:21:46.307Z,0.23
2023-01-08T15:24:27.782Z,0.60
2023-01-08T15:26:54.733Z,0.43
2023-01-08T15:29:35.245Z,0.20
2023-01-08T15:32:14.621Z,0.40
2023-01-08T15:34:45.261Z,0.43
2023-01-08T15:37:16.965Z,0.30
2023-01-08T15:39:43.597Z,0.47
2023-01-08T15:42:48.507Z,0.50
2023-01-08T15:45:20.577Z,0.30
2023-01-08T15:47:49.432Z,0.30
2023-01-08T15:50:15.963Z,0.33
2023-01-08T15:52:43.650Z,0.20
2023-01-08T15:55:21.821Z,0.37
2023-01-08T15:57:49.299Z,0.20
2023-01-08T16:00:17.695Z,0.40
2023-01-08T16:02:55.392Z,0.20
2023-01-08T16:05:23.947Z,0.30
2023-01-08T16:07:51.375Z,0.20
2023-01-08T16:10:18.171Z,0.40
2023-01-08T16:12:44.874Z,0.20
2023-01-08T16:15:12.536Z,0.20
2023-01-08T16:17:39.351Z,0.50
2023-01-08T16:20:08.230Z,0.30
2023-01-08T16:22:34.919Z,0.43
2023-01-08T16:25:01.439Z,0.30
2023-01-08T16:27:27.948Z,0.30
2023-01-08T16:29:54.884Z,0.50
2023-01-08T16:32:21.370Z,0.30
2023-01-08T16:34:47.813Z,0.40
2023-01-08T16:37:14.424Z,0.20
2023-01-08T16:39:40.907Z,0.30
2023-01-08T16:42:09.012Z,0.40
2023-01-08T16:44:36.401Z,0.73
2023-01-08T16:47:02.866Z,0.60
2023-01-08T16:49:33.553Z,0.43
2023-01-08T16:52:00.485Z,0.40
2023-01-08T16:54:27.534Z,0.30
2023-01-08T16:56:54.122Z,0.30
2023-01-08T16:59:23.575Z,0.50
2023-01-08T17:01:51.641Z,0.80
2023-01-08T17:04:18.139Z,0.40
2023-01-08T17:06:44.854Z,0.37
2023-01-08T17:09:11.893Z,0.50
2023-01-08T17:11:38.924Z,0.40
2023-01-08T17:14:05.645Z,0.43
2023-01-08T17:16:32.155Z,0.40
2023-01-08T17:18:58.696Z,0.30
2023-01-08T17:21:25.184Z,0.30
2023-01-08T17:23:51.711Z,0.83
2023-01-08T17:26:18.579Z,0.30
2023-01-08T17:28:46.550Z,0.53
2023-01-08T17:31:17.491Z,0.57
2023-01-08T17:33:50.973Z,0.20
2023-01-08T17:36:23.991Z,0.50
2023-01-08T17:38:52.981Z,0.40
2023-01-08T17:41:38.720Z,0.30
2023-01-08T17:44:07.007Z,0.50
2023-01-08T17:46:42.072Z,0.70
2023-01-08T17:49:11.907Z,0.50
2023-01-08T17:51:40.698Z,0.20
2023-01-08T17:54:12.022Z,0.50
2023-01-08T17:56:38.484Z,0.30
2023-01-08T17:59:05.097Z,0.40
2023-01-08T18:01:32.140Z,0.63
2023-01-08T18:03:58.739Z,0.50
2023-01-08T18:06:25.203Z,0.50
2023-01-08T18:08:51.746Z,0.50
2023-01-08T18:11:18.187Z,0.60
2023-01-08T18:13:44.687Z,0.40
2023-01-08T18:16:13.395Z,0.50
2023-01-08T18:18:41.397Z,0.50
2023-01-08T18:21:08.312Z,0.50
2023-01-08T18:23:34.755Z,1.03
2023-01-08T18:26:09.499Z,0.93
2023-01-08T18:28:37.292Z,0.30
2023-01-08T18:31:08.589Z,0.47
2023-01-08T18:33:36.245Z,0.27
2023-01-08T18:36:06.417Z,0.53
2023-01-08T18:38:33.161Z,0.53
2023-01-08T18:40:59.677Z,0.40
2023-01-08T18:43:26.868Z,0.50
2023-01-08T18:46:01.933Z,0.37
2023-01-08T18:48:29.080Z,0.40
2023-01-08T18:50:56.918Z,0.40
2023-01-08T18:53:23.908Z,0.40
2023-01-08T18:55:50.484Z,0.40
2023-01-08T18:58:17.015Z,0.30
2023-01-08T19:00:48.130Z,0.40
2023-01-08T19:03:14.805Z,0.30
2023-01-08T19:05:46.737Z,0.47
2023-01-08T19:08:13.167Z,0.50
2023-01-08T19:10:39.910Z,0.67
2023-01-08T19:13:06.725Z,0.50
2023-01-08T19:15:33.670Z,0.60
2023-01-08T19:18:00.257Z,0.30
2023-01-08T19:20:30.095Z,0.50
2023-01-08T19:22:56.625Z,0.57
2023-01-08T19:25:23.122Z,0.30
2023-01-08T19:27:49.640Z,0.30
2023-01-08T19:30:16.509Z,0.30
2023-01-08T19:32:42.993Z,0.50
2023-01-08T19:35:17.399Z,0.60
2023-01-08T19:37:43.909Z,0.50
2023-01-08T19:40:11.126Z,0.73
2023-01-08T19:42:56.224Z,0.23
2023-01-08T19:45:22.702Z,0.40
2023-01-08T19:47:49.161Z,0.30
2023-01-08T19:50:15.950Z,0.30
2023-01-08T19:52:42.529Z,0.40
2023-01-08T19:55:14.480Z,0.20
2023-01-08T19:57:40.950Z,0.33
2023-01-08T20:00:08.253Z,0.40
2023-01-08T20:02:34.755Z,0.37
2023-01-08T20:05:01.245Z,0.40
2023-01-08T20:07:27.753Z,0.20
2023-01-08T20:09:56.989Z,0.40
2023-01-08T20:12:23.717Z,0.53
2023-01-08T20:14:50.153Z,0.30
2023-01-08T20:17:19.547Z,0.27
2023-01-08T20:19:46.008Z,0.40
2023-01-08T20:22:12.573Z,0.50
2023-01-08T20:24:41.699Z,0.47
2023-01-08T20:27:08.342Z,0.50
2023-01-08T20:29:34.943Z,0.60
2023-01-08T20:32:03.269Z,0.80
2023-01-08T20:34:29.759Z,0.50
2023-01-08T20:37:05.349Z,0.63
2023-01-08T20:39:31.790Z,0.60
2023-01-08T20:42:04.221Z,0.57
2023-01-08T20:44:32.470Z,0.37
2023-01-08T20:46:59.307Z,0.23
2023-01-08T20:49:26.831Z,0.50
2023-01-08T20:51:59.267Z,0.40
2023-01-08T20:54:30.086Z,0.47
2023-01-08T20:56:57.866Z,0.67
2023-01-08T20:59:24.583Z,0.40
2023-01-08T21:01:51.464Z,0.30
2023-01-08T21:04:18.510Z,0.70
2023-01-08T21:06:47.224Z,0.40
2023-01-08T21:09:17.303Z,0.83
2023-01-08T21:11:43.798Z,0.60
2023-01-08T21:14:10.899Z,0.70
2023-01-08T21:16:39.633Z,0.50
2023-01-08T21:19:07.790Z,0.33
2023-01-08T21:21:38.998Z,1.00
2023-01-08T21:24:09.033Z,0.80
2023-01-08T21:26:37.523Z,0.80
2023-01-08T21:29:06.458Z,0.50
2023-01-08T21:31:34.135Z,0.60
2023-01-08T21:34:04.607Z,0.50
2023-01-08T21:36:32.184Z,0.50
2023-01-08T21:39:00.605Z,0.50
2023-01-08T21:41:46.903Z,0.70
2023-01-08T21:44:43.665Z,0.80
2023-01-08T21:47:13.330Z,0.63
2023-01-08T21:49:39.926Z,0.70
2023-01-08T21:52:25.082Z,0.50
2023-01-08T21:54:52.106Z,0.80
2023-01-08T21:57:18.717Z,0.83
2023-01-08T21:59:45.256Z,0.50
2023-01-08T22:02:16.800Z,1.10
2023-01-08T22:04:44.610Z,0.87
2023-01-08T22:07:11.971Z,0.80
2023-01-08T22:09:38.768Z,0.37
2023-01-08T22:12:06.742Z,1.13
2023-01-08T22:14:33.464Z,0.77
2023-01-08T22:16:59.923Z,1.13
2023-01-08T22:19:26.523Z,0.80
2023-01-08T22:21:52.993Z,0.70
2023-01-08T22:24:19.415Z,1.03
2023-01-08T22:26:45.887Z,1.20
2023-01-08T22:29:12.371Z,1.43
2023-01-08T22:31:38.899Z,1.00
2023-01-08T22:34:05.404Z,0.80
2023-01-08T22:36:31.883Z,0.90
2023-01-08T22:38:58.330Z,0.77
2023-01-08T22:41:25.052Z,0.70
2023-01-08T22:43:58.440Z,0.93
2023-01-08T22:46:25.638Z,1.10
2023-01-08T22:48:52.409Z,0.90
2023-01-08T22:51:27.338Z,1.10
2023-01-08T22:53:55.291Z,1.17
2023-01-08T22:56:21.787Z,0.80
2023-01-08T22:58:48.261Z,0.83
2023-01-08T23:01:17.021Z,0.70
2023-01-08T23:03:44.620Z,1.00
2023-01-08T23:06:16.511Z,1.77
2023-01-08T23:08:44.258Z,0.90
2023-01-08T23:11:13.752Z,1.20
2023-01-08T23:13:41.186Z,0.60
2023-01-08T23:16:09.839Z,1.17
2023-01-08T23:18:37.008Z,0.90
2023-01-08T23:21:06.406Z,1.40
2023-01-08T23:23:33.150Z,0.90
2023-01-08T23:26:13.544Z,1.00
2023-01-08T23:28:40.197Z,1.40
2023-01-08T23:31:08.628Z,1.20
2023-01-08T23:33:35.276Z,1.17
2023-01-08T23:36:02.167Z,1.17
2023-01-08T23:38:28.741Z,1.50
2023-01-08T23:40:56.114Z,1.73
2023-01-08T23:43:22.786Z,1.40
2023-01-08T23:45:49.330Z,1.83
2023-01-08T23:48:15.832Z,1.90
2023-01-08T23:50:44.753Z,1.47
2023-01-08T23:53:11.260Z,1.60
2023-01-08T23:55:37.824Z,1.67
2023-01-08T23:58:04.332Z,1.67
